createdAt,value
2023-04-01T00:01:47.171Z,99078.63
2023-04-01T00:04:16.870Z,99076.22
2023-04-01T00:06:48.507Z,99078.97
2023-04-01T00:09:19.141Z,99078.16
2023-04-01T00:11:49.452Z,99084.03
2023-04-01T00:14:19.641Z,99084.03
2023-04-01T00:16:49.864Z,99083.22
2023-04-01T00:19:20.158Z,99084.03
2023-04-01T00:21:50.285Z,99081.28
2023-04-01T00:24:20.414Z,99089.22
2023-04-01T00:26:50.511Z,99084.41
2023-04-01T00:29:20.608Z,99087.50
2023-04-01T00:31:50.967Z,99084.28
2023-04-01T00:34:21.620Z,99087.03
2023-04-01T00:36:53.495Z,99084.28
2023-04-01T00:39:23.692Z,99085.53
2023-04-01T00:41:54.137Z,99084.03
2023-04-01T00:44:33.954Z,99084.41
2023-04-01T00:47:04.627Z,99079.34
2023-04-01T00:49:46.278Z,99084.88
2023-04-01T00:52:26.038Z,99074.94
2023-04-01T00:55:06.448Z,99084.88
2023-04-01T00:57:43.549Z,99077.03
2023-04-01T01:00:16.216Z,99079.09
2023-04-01T01:02:52.352Z,99077.97
2023-04-01T01:05:49.541Z,99075.53
2023-04-01T01:09:08.734Z,99086.91
2023-04-01T01:12:18.784Z,99085.78
2023-04-01T01:15:27.949Z,99083.03
2023-04-01T01:18:22.979Z,99084.75
2023-04-01T01:21:51.971Z,99083.56
2023-04-01T01:25:10.678Z,99090.25
2023-04-01T01:28:10.380Z,99087.03
2023-04-01T01:31:17.751Z,99083.91
2023-04-01T01:34:27.994Z,99088.28
2023-04-01T01:37:06.930Z,99085.19
2023-04-01T01:39:40.212Z,99081.59
2023-04-01T01:42:21.811Z,99083.91
2023-04-01T01:44:56.147Z,99083.91
2023-04-01T01:47:27.040Z,99081.16
2023-04-01T01:49:58.307Z,99087.50
2023-04-01T01:52:29.643Z,99085.53
2023-04-01T01:54:59.841Z,99087.13
2023-04-01T01:57:40.952Z,99090.00
2023-04-01T02:00:14.780Z,99095.19
2023-04-01T02:02:50.798Z,99101.06
2023-04-01T02:05:28.130Z,99093.13
2023-04-01T02:08:35.108Z,99096.25
2023-04-01T02:11:17.087Z,99093.81
2023-04-01T02:14:11.437Z,99090.25
2023-04-01T02:17:08.442Z,99091.75
2023-04-01T02:19:53.291Z,99091.41
2023-04-01T02:22:31.269Z,99090.94
2023-04-01T02:25:14.208Z,99096.47
2023-04-01T02:27:46.942Z,99097.63
2023-04-01T02:30:18.556Z,99091.31
2023-04-01T02:32:50.813Z,99096.81
2023-04-01T02:35:21.607Z,99092.78
2023-04-01T02:37:55.866Z,99102.22
2023-04-01T02:40:26.108Z,99101.06
2023-04-01T02:42:56.388Z,99106.13
2023-04-01T02:45:26.603Z,99103.38
2023-04-01T02:47:56.712Z,99103.81
2023-04-01T02:50:26.940Z,99114.53
2023-04-01T02:52:57.303Z,99116.16
2023-04-01T02:55:27.644Z,99115.78
2023-04-01T02:57:58.289Z,99116.16
2023-04-01T03:00:28.667Z,99120.06
2023-04-01T03:02:59.108Z,99120.84
2023-04-01T03:05:30.133Z,99118.09
2023-04-01T03:08:00.369Z,99120.06
2023-04-01T03:10:28.741Z,99117.28
2023-04-01T03:12:57.091Z,99112.09
2023-04-01T03:15:25.763Z,99121.56
2023-04-01T03:17:55.586Z,99118.47
2023-04-01T03:20:22.925Z,99118.09
2023-04-01T03:22:51.322Z,99123.63
2023-04-01T03:25:20.036Z,99122.81
2023-04-01T03:27:48.122Z,99127.53
2023-04-01T03:30:16.808Z,99129.97
2023-04-01T03:32:45.055Z,99134.66
2023-04-01T03:35:13.512Z,99131.56
2023-04-01T03:37:42.036Z,99133.53
2023-04-01T03:40:11.648Z,99134.31
2023-04-01T03:42:41.853Z,99145.84
2023-04-01T03:45:15.608Z,99141.09
2023-04-01T03:47:46.340Z,99149.06
2023-04-01T03:50:16.603Z,99143.53
2023-04-01T03:52:46.933Z,99147.44
2023-04-01T03:55:19.160Z,99144.66
2023-04-01T03:57:49.246Z,99143.41
2023-04-01T04:00:19.782Z,99148.59
2023-04-01T04:02:50.068Z,99157.34
2023-04-01T04:05:20.220Z,99155.72
2023-04-01T04:07:51.340Z,99157.34
2023-04-01T04:10:24.333Z,99159.31
2023-04-01T04:12:54.570Z,99162.88
2023-04-01T04:15:25.052Z,99160.09
2023-04-01T04:17:55.333Z,99162.53
2023-04-01T04:20:25.622Z,99168.06
2023-04-01T04:22:55.724Z,99163.34
2023-04-01T04:25:26.071Z,99176.34
2023-04-01T04:27:56.220Z,99172.41
2023-04-01T04:30:26.323Z,99177.59
2023-04-01T04:32:56.752Z,99173.69
2023-04-01T04:35:26.859Z,99169.31
2023-04-01T04:37:56.927Z,99176.81
2023-04-01T04:40:27.102Z,99182.78
2023-04-01T04:42:57.184Z,99176.44
2023-04-01T04:45:27.308Z,99176.44
2023-04-01T04:47:57.886Z,99180.03
2023-04-01T04:50:28.003Z,99183.25
2023-04-01T04:52:58.106Z,99186.03
2023-04-01T04:55:28.275Z,99183.25
2023-04-01T04:57:58.468Z,99189.25
2023-04-01T05:00:28.592Z,99197.53
2023-04-01T05:02:58.824Z,99196.38
2023-04-01T05:05:27.159Z,99190.16
2023-04-01T05:07:55.744Z,99191.75
2023-04-01T05:10:24.055Z,99196.59
2023-04-01T05:12:52.446Z,99198.22
2023-04-01T05:15:21.017Z,99198.34
2023-04-01T05:17:49.342Z,99196.03
2023-04-01T05:20:18.447Z,99204.78
2023-04-01T05:22:46.162Z,99202.13
2023-04-01T05:25:14.642Z,99200.63
2023-04-01T05:27:43.011Z,99207.44
2023-04-01T05:30:12.483Z,99208.22
2023-04-01T05:32:39.963Z,99207.91
2023-04-01T05:35:08.929Z,99211.13
2023-04-01T05:37:37.852Z,99208.81
2023-04-01T05:40:07.194Z,99212.50
2023-04-01T05:42:38.362Z,99212.97
2023-04-01T05:45:10.084Z,99211.00
2023-04-01T05:47:40.269Z,99216.53
2023-04-01T05:50:12.164Z,99216.84
2023-04-01T05:52:42.440Z,99213.63
2023-04-01T05:55:13.060Z,99224.09
2023-04-01T05:57:41.021Z,99222.38
2023-04-01T06:00:10.808Z,99226.88
2023-04-01T06:02:43.047Z,99220.53
2023-04-01T06:05:26.605Z,99226.28
2023-04-01T06:08:17.583Z,99234.22
2023-04-01T06:11:25.809Z,99239.06
2023-04-01T06:14:56.595Z,99245.63
2023-04-01T06:18:30.602Z,99244.81
2023-04-01T06:22:20.905Z,99243.75
2023-04-01T06:25:11.755Z,99257.81
2023-04-01T06:28:36.740Z,99256.91
2023-04-01T06:31:45.524Z,99254.25
2023-04-01T06:35:05.165Z,99267.38
2023-04-01T06:38:36.187Z,99258.06
2023-04-01T06:41:46.226Z,99263.53
2023-04-01T06:44:46.612Z,99262.13
2023-04-01T06:47:39.541Z,99268.34
2023-04-01T06:50:30.669Z,99265.06
2023-04-01T06:53:57.532Z,99268.72
2023-04-01T06:56:31.716Z,99265.28
2023-04-01T06:59:28.535Z,99267.47
2023-04-01T07:02:11.012Z,99265.69
2023-04-01T07:04:54.040Z,99262.31
2023-04-01T07:07:51.515Z,99272.91
2023-04-01T07:10:44.217Z,99282.19
2023-04-01T07:13:33.937Z,99279.16
2023-04-01T07:16:31.017Z,99285.00
2023-04-01T07:20:06.812Z,99281.06
2023-04-01T07:22:50.405Z,99282.69
2023-04-01T07:25:53.085Z,99292.25
2023-04-01T07:28:23.604Z,99292.16
2023-04-01T07:31:22.160Z,99293.25
2023-04-01T07:34:17.010Z,99295.06
2023-04-01T07:37:03.881Z,99297.59
2023-04-01T07:40:22.062Z,99298.16
2023-04-01T07:43:32.222Z,99298.38
2023-04-01T07:46:22.243Z,99304.78
2023-04-01T07:49:23.118Z,99301.28
2023-04-01T07:52:34.573Z,99306.03
2023-04-01T07:55:29.677Z,99302.56
2023-04-01T07:59:05.974Z,99310.28
2023-04-01T08:02:22.428Z,99316.16
2023-04-01T08:05:38.687Z,99320.63
2023-04-01T08:08:49.024Z,99312.69
2023-04-01T08:12:03.536Z,99316.88
2023-04-01T08:15:16.013Z,99323.41
2023-04-01T08:18:26.533Z,99318.84
2023-04-01T08:21:14.481Z,99324.13
2023-04-01T08:23:59.870Z,99324.47
2023-04-01T08:26:49.466Z,99324.78
2023-04-01T08:29:51.179Z,99328.16
2023-04-01T08:32:42.626Z,99329.75
2023-04-01T08:35:49.239Z,99336.19
2023-04-01T08:38:35.646Z,99332.25
2023-04-01T08:41:49.884Z,99329.38
2023-04-01T08:44:37.719Z,99338.41
2023-04-01T08:48:00.598Z,99336.13
2023-04-01T08:51:46.268Z,99339.47
2023-04-01T08:54:39.640Z,99339.41
2023-04-01T08:57:57.842Z,99342.81
2023-04-01T09:00:51.173Z,99349.50
2023-04-01T09:03:56.042Z,99350.81
2023-04-01T09:07:12.779Z,99349.44
2023-04-01T09:10:51.531Z,99351.69
2023-04-01T09:14:35.870Z,99346.53
2023-04-01T09:17:53.511Z,99351.84
2023-04-01T09:21:16.066Z,99349.78
2023-04-01T09:24:42.900Z,99354.22
2023-04-01T09:27:53.830Z,99358.50
2023-04-01T09:30:50.819Z,99375.25
2023-04-01T09:33:47.703Z,99374.75
2023-04-01T09:36:47.088Z,99384.56
2023-04-01T09:39:51.544Z,99384.31
2023-04-01T09:43:06.132Z,99380.69
2023-04-01T09:45:53.735Z,99383.94
2023-04-01T09:48:47.942Z,99385.28
2023-04-01T09:51:53.003Z,99392.06
2023-04-01T09:54:53.791Z,99391.41
2023-04-01T09:58:27.790Z,99400.03
2023-04-01T10:01:53.914Z,99402.97
2023-04-01T10:05:19.328Z,99406.13
2023-04-01T10:08:57.022Z,99403.00
2023-04-01T10:12:08.867Z,99409.88
2023-04-01T10:15:34.985Z,99418.66
2023-04-01T10:19:05.499Z,99421.25
2023-04-01T10:22:18.299Z,99413.63
2023-04-01T10:25:12.644Z,99418.03
2023-04-01T10:28:47.350Z,99422.28
2023-04-01T10:32:11.519Z,99417.72
2023-04-01T10:35:47.588Z,99423.94
2023-04-01T10:38:35.853Z,99413.63
2023-04-01T10:41:36.553Z,99419.94
2023-04-01T10:45:11.661Z,99421.78
2023-04-01T10:48:22.635Z,99427.75
2023-04-01T10:51:36.553Z,99432.81
2023-04-01T10:54:40.989Z,99436.25
2023-04-01T10:57:53.442Z,99448.16
2023-04-01T11:00:54.250Z,99443.88
2023-04-01T11:03:36.039Z,99448.28
2023-04-01T11:06:52.725Z,99450.13
2023-04-01T11:10:06.766Z,99459.56
2023-04-01T11:13:09.974Z,99453.09
2023-04-01T11:16:47.325Z,99455.66
2023-04-01T11:20:00.715Z,99464.78
2023-04-01T11:23:22.098Z,99471.22
2023-04-01T11:26:23.593Z,99466.50
2023-04-01T11:29:35.934Z,99469.59
2023-04-01T11:32:43.205Z,99470.66
2023-04-01T11:36:20.975Z,99475.50
2023-04-01T11:39:32.527Z,99484.66
2023-04-01T11:42:36.208Z,99492.66
2023-04-01T11:45:35.287Z,99488.63
2023-04-01T11:49:10.761Z,99497.09
2023-04-01T11:52:23.427Z,99499.41
2023-04-01T11:55:27.127Z,99509.13
2023-04-01T11:58:23.686Z,99501.03
2023-04-01T12:01:21.018Z,99515.44
2023-04-01T12:04:58.094Z,99515.19
2023-04-01T12:07:40.184Z,99513.81
2023-04-01T12:11:16.916Z,99514.38
2023-04-01T12:14:38.112Z,99515.63
2023-04-01T12:17:46.574Z,99525.16
2023-04-01T12:21:04.604Z,99522.38
2023-04-01T12:24:27.358Z,99530.50
2023-04-01T12:27:54.930Z,99538.09
2023-04-01T12:31:17.082Z,99533.97
2023-04-01T12:34:45.551Z,99544.03
2023-04-01T12:38:14.849Z,99542.22
2023-04-01T12:41:58.103Z,99547.66
2023-04-01T12:45:04.596Z,99553.31
2023-04-01T12:48:07.545Z,99561.28
2023-04-01T12:51:22.197Z,99555.84
2023-04-01T12:54:34.938Z,99566.25
2023-04-01T12:57:45.530Z,99568.50
2023-04-01T13:01:06.806Z,99564.75
2023-04-01T13:04:32.809Z,99576.13
2023-04-01T13:07:50.929Z,99571.59
2023-04-01T13:10:51.417Z,99579.91
2023-04-01T13:14:31.179Z,99586.03
2023-04-01T13:18:02.331Z,99589.78
2023-04-01T13:21:09.934Z,99597.44
2023-04-01T13:24:36.900Z,99595.69
2023-04-01T13:27:42.068Z,99603.31
2023-04-01T13:30:43.796Z,99612.34
2023-04-01T13:33:49.094Z,99609.84
2023-04-01T13:36:37.328Z,99610.94
2023-04-01T13:39:46.515Z,99611.53
2023-04-01T13:43:03.874Z,99623.28
2023-04-01T13:45:49.889Z,99623.91
2023-04-01T13:49:18.789Z,99626.41
2023-04-01T13:52:03.736Z,99630.44
2023-04-01T13:55:07.387Z,99627.41
2023-04-01T13:58:22.444Z,99635.91
2023-04-01T14:01:29.251Z,99639.66
2023-04-01T14:04:31.777Z,99646.03
2023-04-01T14:07:35.860Z,99637.03
2023-04-01T14:10:42.512Z,99656.16
2023-04-01T14:13:49.581Z,99661.78
2023-04-01T14:16:40.943Z,99663.31
2023-04-01T14:19:30.081Z,99658.06
2023-04-01T14:22:40.763Z,99667.22
2023-04-01T14:26:06.948Z,99674.69
2023-04-01T14:29:25.466Z,99669.50
2023-04-01T14:33:15.590Z,99685.13
2023-04-01T14:36:15.742Z,99685.41
2023-04-01T14:39:43.083Z,99683.63
2023-04-01T14:42:50.057Z,99692.28
2023-04-01T14:46:03.760Z,99691.97
2023-04-01T14:48:52.921Z,99704.00
2023-04-01T14:51:38.750Z,99695.38
2023-04-01T14:54:39.342Z,99706.44
2023-04-01T14:57:31.624Z,99706.75
2023-04-01T15:00:20.213Z,99717.59
2023-04-01T15:03:15.137Z,99714.56
2023-04-01T15:07:20.511Z,99720.06
2023-04-01T15:10:25.991Z,99724.59
2023-04-01T15:13:13.938Z,99723.44
2023-04-01T15:16:04.910Z,99728.81
2023-04-01T15:19:24.950Z,99734.66
2023-04-01T15:22:27.151Z,99732.84
2023-04-01T15:25:25.032Z,99745.81
2023-04-01T15:29:05.695Z,99752.16
2023-04-01T15:31:59.325Z,99750.53
2023-04-01T15:34:52.008Z,99749.69
2023-04-01T15:37:41.344Z,99757.78
2023-04-01T15:40:45.781Z,99768.13
2023-04-01T15:43:45.108Z,99769.75
2023-04-01T15:46:46.251Z,99772.88
2023-04-01T15:49:32.009Z,99781.41
2023-04-01T15:52:39.900Z,99781.09
2023-04-01T15:55:42.444Z,99790.31
2023-04-01T15:58:45.492Z,99782.50
2023-04-01T16:02:40.384Z,99792.84
2023-04-01T16:05:56.717Z,99795.44
2023-04-01T16:08:56.902Z,99806.13
2023-04-01T16:12:05.369Z,99808.31
2023-04-01T16:16:05.641Z,99823.50
2023-04-01T16:19:05.992Z,99823.16
2023-04-01T16:22:03.519Z,99827.91
2023-04-01T16:25:01.244Z,99829.91
2023-04-01T16:28:06.599Z,99833.72
2023-04-01T16:31:08.203Z,99838.31
2023-04-01T16:34:30.613Z,99842.06
2023-04-01T16:37:40.868Z,99850.13
2023-04-01T16:40:59.223Z,99853.91
2023-04-01T16:43:48.975Z,99859.66
2023-04-01T16:46:27.857Z,99854.22
2023-04-01T16:49:36.300Z,99866.72
2023-04-01T16:52:12.379Z,99872.94
2023-04-01T16:55:21.382Z,99874.63
2023-04-01T16:58:02.237Z,99883.69
2023-04-01T17:00:42.559Z,99890.09
2023-04-01T17:03:40.837Z,99889.59
2023-04-01T17:06:40.447Z,99894.88
2023-04-01T17:09:45.589Z,99907.47
2023-04-01T17:12:34.663Z,99911.13
2023-04-01T17:16:13.860Z,99916.97
2023-04-01T17:19:27.226Z,99921.13
2023-04-01T17:23:00.242Z,99931.34
2023-04-01T17:26:30.088Z,99934.50
2023-04-01T17:29:41.004Z,99940.22
2023-04-01T17:33:01.462Z,99948.63
2023-04-01T17:36:46.871Z,99959.53
2023-04-01T17:40:08.789Z,99957.59
2023-04-01T17:43:24.099Z,99962.38
2023-04-01T17:46:20.909Z,99972.34
2023-04-01T17:49:28.051Z,99973.28
2023-04-01T17:52:45.568Z,99983.66
2023-04-01T17:55:55.142Z,99988.53
2023-04-01T17:59:20.009Z,99993.63
2023-04-01T18:02:43.175Z,99997.88
2023-04-01T18:05:49.494Z,100007.25
2023-04-01T18:09:27.114Z,100019.78
2023-04-01T18:12:16.684Z,100029.38
2023-04-01T18:14:55.611Z,100021.03
2023-04-01T18:17:55.410Z,100030.56
2023-04-01T18:21:01.600Z,100033.41
2023-04-01T18:24:02.385Z,100042.97
2023-04-01T18:26:40.845Z,100045.09
2023-04-01T18:29:56.028Z,100065.31
2023-04-01T18:32:50.060Z,100068.06
2023-04-01T18:35:42.005Z,100076.28
2023-04-01T18:38:32.603Z,100082.06
2023-04-01T18:41:57.200Z,100090.19
2023-04-01T18:44:49.327Z,100090.84
2023-04-01T18:48:05.172Z,100101.31
2023-04-01T18:50:48.462Z,100106.06
2023-04-01T18:53:43.729Z,100107.50
2023-04-01T18:56:35.119Z,100116.72
2023-04-01T18:59:43.552Z,100125.00
2023-04-01T19:03:09.248Z,100121.59
2023-04-01T19:05:50.940Z,100125.41
2023-04-01T19:08:42.235Z,100135.56
2023-04-01T19:11:50.776Z,100134.66
2023-04-01T19:15:08.513Z,100136.59
2023-04-01T19:18:29.990Z,100143.28
2023-04-01T19:21:19.337Z,100152.41
2023-04-01T19:24:18.301Z,100148.81
2023-04-01T19:27:09.961Z,100146.31
2023-04-01T19:30:18.037Z,100164.13
2023-04-01T19:33:24.226Z,100153.47
2023-04-01T19:36:24.443Z,100168.78
2023-04-01T19:39:21.448Z,100172.28
2023-04-01T19:42:20.839Z,100178.28
2023-04-01T19:45:33.729Z,100182.25
2023-04-01T19:48:41.487Z,100191.19
2023-04-01T19:51:35.055Z,100195.69
2023-04-01T19:55:01.189Z,100210.56
2023-04-01T19:58:14.586Z,100215.19
2023-04-01T20:00:59.788Z,100218.47
2023-04-01T20:04:05.891Z,100220.34
2023-04-01T20:07:44.908Z,100229.47
2023-04-01T20:10:53.338Z,100242.91
2023-04-01T20:13:57.506Z,100242.78
2023-04-01T20:17:10.159Z,100246.69
2023-04-01T20:20:04.604Z,100260.53
2023-04-01T20:22:44.635Z,100261.56
2023-04-01T20:26:03.492Z,100265.66
2023-04-01T20:28:51.056Z,100268.41
2023-04-01T20:31:41.303Z,100273.78
2023-04-01T20:34:45.742Z,100276.88
2023-04-01T20:37:29.669Z,100277.88
2023-04-01T20:40:33.481Z,100285.88
2023-04-01T20:43:59.414Z,100293.78
2023-04-01T20:46:53.187Z,100297.91
2023-04-01T20:49:42.519Z,100298.00
2023-04-01T20:52:22.868Z,100295.88
2023-04-01T20:55:03.310Z,100306.59
2023-04-01T20:57:48.565Z,100315.97
2023-04-01T21:00:41.938Z,100322.19
2023-04-01T21:03:57.832Z,100318.75
2023-04-01T21:07:02.192Z,100330.97
2023-04-01T21:10:08.401Z,100321.63
2023-04-01T21:13:22.121Z,100331.63
2023-04-01T21:16:54.293Z,100338.78
2023-04-01T21:19:57.278Z,100346.63
2023-04-01T21:23:16.299Z,100365.78
2023-04-01T21:26:24.040Z,100358.91
2023-04-01T21:29:43.469Z,100369.00
2023-04-01T21:32:34.660Z,100363.28
2023-04-01T21:35:53.231Z,100373.44
2023-04-01T21:38:52.061Z,100380.41
2023-04-01T21:42:03.480Z,100385.31
2023-04-01T21:44:49.939Z,100392.78
2023-04-01T21:48:28.651Z,100395.72
2023-04-01T21:52:16.279Z,100395.16
2023-04-01T21:55:51.706Z,100403.19
2023-04-01T21:59:03.140Z,100410.59
2023-04-01T22:01:53.640Z,100421.28
2023-04-01T22:05:35.123Z,100420.72
2023-04-01T22:09:08.424Z,100429.25
2023-04-01T22:11:56.898Z,100428.72
2023-04-01T22:14:57.840Z,100434.72
2023-04-01T22:17:59.153Z,100433.63
2023-04-01T22:21:06.343Z,100442.09
2023-04-01T22:23:59.406Z,100447.88
2023-04-01T22:26:49.884Z,100440.47
2023-04-01T22:29:52.582Z,100443.50
2023-04-01T22:33:06.926Z,100453.06
2023-04-01T22:36:32.091Z,100463.25
2023-04-01T22:40:00.570Z,100458.00
2023-04-01T22:43:09.964Z,100461.59
2023-04-01T22:45:51.804Z,100473.66
2023-04-01T22:48:42.826Z,100475.84
2023-04-01T22:51:30.572Z,100482.66
2023-04-01T22:54:20.582Z,100472.25
2023-04-01T22:57:09.739Z,100483.22
2023-04-01T23:00:22.744Z,100493.91
2023-04-01T23:03:17.775Z,100494.19
2023-04-01T23:06:01.829Z,100500.78
2023-04-01T23:09:28.968Z,100500.50
2023-04-01T23:12:22.838Z,100511.44
2023-04-01T23:15:01.653Z,100520.75
2023-04-01T23:18:31.394Z,100507.59
2023-04-01T23:21:39.500Z,100511.19
2023-04-01T23:24:45.636Z,100519.41
2023-04-01T23:27:38.831Z,100533.34
2023-04-01T23:30:50.577Z,100531.47
2023-04-01T23:33:24.803Z,100537.22
2023-04-01T23:36:22.645Z,100540.22
2023-04-01T23:38:55.476Z,100544.88
2023-04-01T23:41:34.279Z,100547.06
2023-04-01T23:44:14.655Z,100551.19
2023-04-01T23:46:49.994Z,100555.81
2023-04-01T23:49:50.360Z,100562.41
2023-04-01T23:52:31.400Z,100562.94
2023-04-01T23:55:25.551Z,100576.09
2023-04-01T23:58:18.828Z,100579.66
